Time;durP1;ratioP1;P1;durP2;ratioP2;P2;SDS_P1;SDS_P2;PMS_P1;PMS_P2;Temp;Humidity;BMP_temperature;BMP_pressure;BME280_temperature;BME280_humidity;BME280_pressure;Samples;Min_cycle;Max_cycle;Signal;HPM_P1;HPM_P2
2021/04/08 00:02:16;;;;;;;13.70;7.65;;;3.00;65.60;;;;;;5063838;28;20059;-76
2021/04/08 00:04:42;;;;;;;12.80;8.00;;;3.00;65.70;;;;;;5037583;28;20033;-75
2021/04/08 00:07:07;;;;;;;14.65;7.70;;;3.10;65.60;;;;;;5062813;28;20040;-76
2021/04/08 00:09:33;;;;;;;13.38;7.95;;;3.10;65.30;;;;;;5065522;28;20028;-75
2021/04/08 00:11:59;;;;;;;14.77;8.68;;;3.10;65.20;;;;;;5066263;28;20033;-75
2021/04/08 00:14:25;;;;;;;12.25;7.78;;;3.10;65.20;;;;;;5052098;28;20036;-75
2021/04/08 00:16:51;;;;;;;12.80;7.72;;;3.10;65.20;;;;;;5041266;28;20087;-76
2021/04/08 00:19:19;;;;;;;12.40;7.53;;;3.10;65.00;;;;;;5035889;28;20037;-75
2021/04/08 00:21:45;;;;;;;10.63;7.20;;;3.10;65.20;;;;;;5034467;28;20040;-82
2021/04/08 00:24:11;;;;;;;14.30;7.55;;;3.10;65.20;;;;;;5059334;28;20036;-76
2021/04/08 00:26:36;;;;;;;13.35;8.50;;;3.20;65.30;;;;;;5057349;28;20055;-75
2021/04/08 00:29:03;;;;;;;13.13;8.38;;;3.20;65.10;;;;;;5064419;28;20036;-76
2021/04/08 00:31:29;;;;;;;12.00;7.60;;;3.20;65.00;;;;;;5065575;28;20537;-77
2021/04/08 00:33:54;;;;;;;12.35;8.23;;;3.20;65.30;;;;;;5063033;28;20075;-76
2021/04/08 00:36:20;;;;;;;13.75;7.55;;;3.20;65.10;;;;;;5065296;28;20147;-80
2021/04/08 00:38:45;;;;;;;12.70;7.53;;;3.30;65.30;;;;;;5061324;28;20400;-76
2021/04/08 00:41:11;;;;;;;12.75;8.15;;;3.30;65.20;;;;;;5063226;28;20032;-77
2021/04/08 00:43:37;;;;;;;20.48;8.55;;;3.30;65.20;;;;;;5063285;28;20033;-77
2021/04/08 00:46:03;;;;;;;12.90;7.68;;;3.30;65.40;;;;;;5064845;28;20511;-74
2021/04/08 00:48:28;;;;;;;14.73;8.25;;;3.40;65.30;;;;;;5065855;28;20039;-81
2021/04/08 00:50:54;;;;;;;18.02;8.27;;;3.40;65.30;;;;;;5063574;28;20481;-77
2021/04/08 00:53:23;;;;;;;14.38;7.68;;;3.40;65.30;;;;;;5061932;28;20469;-77
2021/04/08 00:55:52;;;;;;;12.25;7.50;;;3.40;65.30;;;;;;5061573;28;20119;-77
2021/04/08 00:58:19;;;;;;;17.08;7.53;;;3.40;65.50;;;;;;5061803;28;20032;-77
2021/04/08 01:00:46;;;;;;;12.90;7.45;;;3.40;65.60;;;;;;5065685;28;20041;-77
2021/04/08 01:03:12;;;;;;;13.10;8.25;;;3.50;65.50;;;;;;5065132;28;20025;-77
2021/04/08 01:05:39;;;;;;;12.77;7.43;;;3.50;65.50;;;;;;5066925;28;20111;-77
2021/04/08 01:08:05;;;;;;;12.98;8.15;;;3.50;65.40;;;;;;5064949;28;20416;-76
2021/04/08 01:10:31;;;;;;;12.23;7.20;;;3.50;65.50;;;;;;5068912;28;20030;-77
2021/04/08 01:13:01;;;;;;;16.45;8.55;;;3.50;65.70;;;;;;5070210;28;20025;-77
2021/04/08 01:15:28;;;;;;;12.80;8.40;;;3.50;65.80;;;;;;5070643;28;20032;-77
2021/04/08 01:18:31;;;;;;;13.68;8.38;;;3.60;65.80;;;;;;5068182;28;20120;-78
2021/04/08 01:21:08;;;;;;;17.30;7.40;;;3.60;65.90;;;;;;5064879;28;20502;-78
2021/04/08 01:23:49;;;;;;;12.85;7.57;;;3.60;65.90;;;;;;5048739;28;20029;-77
2021/04/08 01:26:38;;;;;;;17.33;8.43;;;3.60;65.80;;;;;;5060439;28;20063;-76
2021/04/08 01:29:37;;;;;;;13.57;7.75;;;3.60;66.10;;;;;;5066848;28;20044;-77
2021/04/08 01:32:06;;;;;;;11.43;7.78;;;3.60;66.20;;;;;;5065880;28;20075;-77
2021/04/08 01:34:35;;;;;;;15.02;8.57;;;3.60;66.20;;;;;;5050726;28;20452;-76
2021/04/08 01:37:05;;;;;;;12.63;8.30;;;3.60;66.10;;;;;;5064130;28;20044;-76
2021/04/08 01:39:31;;;;;;;17.38;9.20;;;3.60;66.20;;;;;;5059527;28;20028;-77
2021/04/08 01:41:59;;;;;;;16.33;8.85;;;3.60;66.00;;;;;;5067045;28;20480;-77
2021/04/08 01:44:25;;;;;;;17.23;8.77;;;3.60;66.20;;;;;;5067027;28;20025;-78
2021/04/08 01:46:58;;;;;;;13.43;8.43;;;3.60;66.40;;;;;;5065886;28;20047;-78
2021/04/08 01:49:27;;;;;;;13.13;8.57;;;3.60;66.30;;;;;;5068687;28;20032;-78
2021/04/08 01:51:56;;;;;;;15.60;8.48;;;3.60;66.10;;;;;;5065770;28;20365;-81
2021/04/08 01:54:26;;;;;;;15.43;8.68;;;3.60;66.00;;;;;;5054931;28;20198;-77
2021/04/08 01:56:57;;;;;;;13.38;8.35;;;3.60;66.10;;;;;;5054918;28;20125;-80
2021/04/08 01:59:24;;;;;;;13.15;8.70;;;3.60;66.00;;;;;;5066587;28;20032;-76
2021/04/08 02:01:52;;;;;;;16.02;9.70;;;3.60;66.10;;;;;;5048959;28;20052;-76
2021/04/08 02:04:18;;;;;;;12.80;8.38;;;3.60;66.00;;;;;;5044454;28;20033;-76
2021/04/08 02:06:44;;;;;;;13.88;9.10;;;3.60;65.90;;;;;;5045181;28;20041;-78
2021/04/08 02:09:11;;;;;;;13.15;8.48;;;3.60;66.10;;;;;;5048211;28;20025;-78
2021/04/08 02:11:39;;;;;;;15.63;8.88;;;3.60;66.40;;;;;;5047222;28;20107;-77
2021/04/08 02:14:08;;;;;;;18.80;9.02;;;3.60;66.50;;;;;;5045286;28;20037;-79
2021/04/08 02:16:35;;;;;;;14.15;8.45;;;3.50;66.40;;;;;;5049461;28;20045;-78
2021/04/08 02:19:01;;;;;;;16.17;9.02;;;3.60;66.60;;;;;;5046330;28;20392;-77
2021/04/08 02:21:28;;;;;;;15.25;9.73;;;3.60;66.70;;;;;;5045643;28;20043;-78
2021/04/08 02:23:55;;;;;;;17.10;8.88;;;3.60;66.70;;;;;;5045293;28;20047;-78
2021/04/08 02:26:21;;;;;;;13.25;8.50;;;3.60;66.50;;;;;;5043868;28;20056;-77
2021/04/08 02:28:48;;;;;;;14.63;9.38;;;3.60;66.50;;;;;;5047123;28;20033;-79
2021/04/08 02:31:16;;;;;;;14.77;8.82;;;3.60;66.70;;;;;;5063258;28;20041;-76
2021/04/08 02:33:41;;;;;;;15.55;9.35;;;3.60;66.70;;;;;;5047838;28;20043;-79
2021/04/08 02:36:07;;;;;;;15.38;9.00;;;3.60;66.60;;;;;;5045680;28;20108;-77
2021/04/08 02:38:35;;;;;;;16.25;9.30;;;3.60;66.60;;;;;;5039319;28;20473;-82
2021/04/08 02:41:05;;;;;;;13.73;8.32;;;3.60;66.30;;;;;;5043432;28;20033;-77
2021/04/08 02:43:31;;;;;;;18.45;9.85;;;3.60;66.30;;;;;;5041404;28;20534;-77
2021/04/08 02:45:57;;;;;;;14.60;9.45;;;3.60;66.40;;;;;;5046758;28;20045;-76
2021/04/08 02:48:24;;;;;;;17.75;8.80;;;3.50;66.50;;;;;;5044941;28;20041;-77
2021/04/08 02:50:52;;;;;;;11.55;8.35;;;3.60;66.50;;;;;;5045118;28;20072;-79
2021/04/08 02:53:39;;;;;;;15.15;9.25;;;3.60;66.60;;;;;;5037134;28;20037;-78
2021/04/08 02:56:40;;;;;;;15.27;8.98;;;3.60;66.70;;;;;;5040281;28;20381;-76
2021/04/08 02:59:21;;;;;;;14.15;8.60;;;3.60;66.70;;;;;;5038672;28;20037;-76
2021/04/08 03:01:53;;;;;;;16.27;9.40;;;3.60;66.60;;;;;;5044296;28;20128;-77
2021/04/08 03:04:22;;;;;;;14.55;8.70;;;3.60;66.60;;;;;;5047618;28;20489;-76
2021/04/08 03:06:50;;;;;;;13.38;9.02;;;3.60;66.80;;;;;;5048153;28;20139;-77
2021/04/08 03:09:19;;;;;;;15.95;9.57;;;3.60;66.90;;;;;;5047301;28;20037;-77
2021/04/08 03:11:50;;;;;;;15.43;8.15;;;3.50;66.80;;;;;;5043843;28;20037;-77
2021/04/08 03:14:16;;;;;;;23.45;9.45;;;3.50;66.90;;;;;;5045717;28;20041;-76
2021/04/08 03:16:47;;;;;;;15.90;9.15;;;3.60;67.20;;;;;;5047883;28;20468;-78
2021/04/08 03:19:19;;;;;;;17.45;8.63;;;3.50;67.30;;;;;;5037135;28;20505;-77
2021/04/08 03:21:46;;;;;;;14.73;8.75;;;3.50;67.30;;;;;;5046178;28;20120;-77
2021/04/08 03:24:13;;;;;;;16.60;10.20;;;3.50;67.40;;;;;;5044619;28;20446;-78
2021/04/08 03:26:41;;;;;;;16.05;9.77;;;3.50;67.60;;;;;;5043850;28;20041;-78
2021/04/08 03:29:07;;;;;;;15.23;10.05;;;3.50;67.80;;;;;;5043969;28;20045;-77
2021/04/08 03:31:33;;;;;;;15.60;9.57;;;3.50;67.90;;;;;;5041311;28;20369;-76
2021/04/08 03:34:00;;;;;;;16.63;10.15;;;3.40;68.10;;;;;;5045137;28;20116;-77
2021/04/08 03:36:27;;;;;;;16.08;10.07;;;3.40;68.20;;;;;;5043848;28;20048;-77
2021/04/08 03:38:53;;;;;;;16.58;10.63;;;3.40;68.40;;;;;;5046007;28;20029;-78
2021/04/08 03:41:21;;;;;;;17.88;10.52;;;3.40;68.40;;;;;;5044529;28;20041;-78
2021/04/08 03:43:47;;;;;;;14.23;9.43;;;3.40;68.40;;;;;;5036899;28;20174;-76
2021/04/08 03:46:14;;;;;;;16.23;11.75;;;3.40;68.50;;;;;;5046214;28;20119;-79
2021/04/08 03:48:41;;;;;;;15.10;10.00;;;3.40;68.60;;;;;;5044032;28;20041;-77
2021/04/08 03:51:09;;;;;;;15.02;9.88;;;3.40;68.60;;;;;;5047300;28;20124;-79
2021/04/08 03:53:35;;;;;;;14.68;9.40;;;3.40;68.70;;;;;;5043338;28;20943;-78
2021/04/08 03:56:02;;;;;;;15.55;9.88;;;3.40;68.80;;;;;;5047986;28;20037;-76
2021/04/08 03:58:28;;;;;;;14.65;9.85;;;3.40;68.90;;;;;;5044715;28;20042;-76
2021/04/08 04:00:58;;;;;;;16.75;10.38;;;3.40;68.90;;;;;;5045883;28;20036;-77
2021/04/08 04:03:24;;;;;;;15.85;9.88;;;3.40;69.10;;;;;;5043383;28;20033;-77
2021/04/08 04:05:51;;;;;;;16.15;10.82;;;3.40;69.20;;;;;;5042634;28;20029;-79
2021/04/08 04:08:16;;;;;;;14.45;9.80;;;3.40;69.30;;;;;;5035827;28;20038;-80
2021/04/08 04:10:42;;;;;;;17.50;10.30;;;3.40;69.40;;;;;;5036817;28;20576;-76
2021/04/08 04:13:12;;;;;;;18.20;12.18;;;3.40;69.50;;;;;;5033371;28;20440;-77
2021/04/08 04:15:38;;;;;;;15.80;9.95;;;3.40;69.40;;;;;;5033800;28;20044;-81
2021/04/08 04:18:05;;;;;;;20.35;12.07;;;3.40;69.40;;;;;;5037664;28;20436;-77
2021/04/08 04:20:31;;;;;;;21.00;12.32;;;3.50;69.40;;;;;;5037008;28;20052;-76
2021/04/08 04:22:57;;;;;;;18.27;13.02;;;3.40;69.30;;;;;;5036513;28;20026;-78
2021/04/08 04:25:23;;;;;;;16.45;11.73;;;3.50;69.30;;;;;;5039804;28;20022;-78
2021/04/08 04:27:49;;;;;;;20.45;12.80;;;3.40;69.50;;;;;;5032608;28;20123;-78
2021/04/08 04:30:15;;;;;;;17.95;11.50;;;3.50;69.50;;;;;;5039875;28;20040;-76
2021/04/08 04:32:41;;;;;;;17.73;11.40;;;3.50;69.50;;;;;;5039881;28;20040;-79
2021/04/08 04:35:07;;;;;;;20.92;12.98;;;3.50;69.50;;;;;;5040923;28;20087;-78
2021/04/08 04:37:33;;;;;;;17.23;11.65;;;3.50;69.50;;;;;;5035352;28;20120;-78
2021/04/08 04:39:59;;;;;;;18.33;11.43;;;3.50;69.30;;;;;;5034739;28;20116;-76
2021/04/08 04:42:25;;;;;;;16.13;11.05;;;3.50;69.40;;;;;;5043969;28;20037;-76
2021/04/08 04:44:50;;;;;;;15.55;10.18;;;3.50;69.40;;;;;;5048355;28;20036;-77
2021/04/08 04:47:16;;;;;;;17.95;11.57;;;3.60;69.40;;;;;;5057264;28;20451;-77
2021/04/08 04:49:42;;;;;;;17.48;10.55;;;3.60;69.30;;;;;;5049480;28;20035;-76
2021/04/08 04:52:07;;;;;;;18.70;11.45;;;3.60;69.20;;;;;;5041159;28;20124;-77
2021/04/08 04:54:33;;;;;;;21.23;11.95;;;3.60;69.30;;;;;;5032027;28;20029;-77
2021/04/08 04:56:59;;;;;;;15.13;10.43;;;3.60;69.30;;;;;;5047657;28;20446;-78
2021/04/08 04:59:25;;;;;;;17.33;11.00;;;3.60;69.30;;;;;;5044441;28;20037;-76
2021/04/08 05:01:50;;;;;;;15.40;10.07;;;3.60;69.10;;;;;;5046497;28;20033;-80
2021/04/08 05:04:16;;;;;;;19.58;10.52;;;3.60;69.20;;;;;;5061302;28;20044;-77
2021/04/08 05:06:42;;;;;;;19.40;10.68;;;3.60;69.40;;;;;;5065599;28;20036;-73
2021/04/08 05:09:07;;;;;;;15.07;10.98;;;3.60;69.50;;;;;;5047842;28;20047;-77
2021/04/08 05:11:33;;;;;;;18.80;10.98;;;3.60;69.70;;;;;;5050766;28;20098;-79
2021/04/08 05:13:59;;;;;;;18.05;10.77;;;3.60;69.80;;;;;;5059580;28;20044;-83
2021/04/08 05:16:25;;;;;;;19.02;10.77;;;3.60;69.80;;;;;;5062840;28;20029;-76
2021/04/08 05:18:51;;;;;;;19.85;11.35;;;3.60;69.90;;;;;;5065672;28;20033;-77
2021/04/08 05:21:17;;;;;;;22.02;10.93;;;3.60;69.90;;;;;;5050836;28;20042;-80
2021/04/08 05:23:42;;;;;;;16.75;10.70;;;3.60;69.90;;;;;;5036109;28;20044;-79
2021/04/08 05:26:08;;;;;;;23.27;11.98;;;3.60;69.60;;;;;;5051918;28;20045;-78
2021/04/08 05:28:33;;;;;;;18.23;11.63;;;3.60;69.70;;;;;;5056447;28;20048;-78
2021/04/08 05:30:59;;;;;;;19.00;10.52;;;3.60;69.70;;;;;;5060671;28;20474;-77
2021/04/08 05:33:25;;;;;;;19.60;10.98;;;3.70;69.80;;;;;;5050127;28;20037;-80
2021/04/08 05:35:51;;;;;;;21.10;11.90;;;3.70;69.70;;;;;;5040390;28;20030;-77
2021/04/08 05:38:17;;;;;;;20.08;12.30;;;3.70;69.60;;;;;;5033137;28;20123;-77
2021/04/08 05:40:43;;;;;;;21.80;10.77;;;3.80;69.30;;;;;;5039527;28;20166;-79
2021/04/08 05:43:08;;;;;;;23.08;11.57;;;3.80;69.10;;;;;;5046011;28;20119;-76
2021/04/08 05:45:34;;;;;;;17.85;11.75;;;3.80;69.20;;;;;;5040848;28;20468;-77
2021/04/08 05:48:00;;;;;;;19.77;11.55;;;3.80;69.00;;;;;;5044625;28;20078;-76
2021/04/08 05:50:25;;;;;;;21.33;11.15;;;3.90;69.20;;;;;;5045028;28;20048;-78
2021/04/08 05:52:51;;;;;;;17.50;11.38;;;3.90;69.10;;;;;;5045534;28;20033;-79
2021/04/08 05:55:17;;;;;;;17.77;10.90;;;3.90;69.10;;;;;;5043841;28;20116;-78
2021/04/08 05:57:43;;;;;;;18.98;10.65;;;4.00;68.80;;;;;;5042274;28;20400;-77
2021/04/08 06:00:11;;;;;;;18.48;9.88;;;4.00;68.80;;;;;;5044051;28;20036;-77
2021/04/08 06:02:36;;;;;;;15.48;9.90;;;4.00;68.70;;;;;;5046080;28;20118;-78
2021/04/08 06:05:04;;;;;;;17.75;10.15;;;4.10;68.70;;;;;;5044033;28;20146;-79
2021/04/08 06:07:30;;;;;;;19.30;10.35;;;4.10;68.70;;;;;;5044543;28;20041;-78
2021/04/08 06:09:56;;;;;;;17.35;11.20;;;4.10;68.80;;;;;;5046122;28;20491;-77
2021/04/08 06:12:21;;;;;;;22.48;11.60;;;4.10;68.60;;;;;;5043788;28;20412;-77
2021/04/08 06:14:48;;;;;;;18.45;11.30;;;4.20;68.40;;;;;;5044416;28;20033;-81
2021/04/08 06:17:15;;;;;;;19.42;12.05;;;4.20;68.30;;;;;;5042367;28;20043;-80
2021/04/08 06:19:41;;;;;;;21.15;10.75;;;4.20;68.20;;;;;;5045881;28;20132;-78
2021/04/08 06:22:07;;;;;;;20.27;10.23;;;4.30;68.00;;;;;;5045207;28;20108;-77
2021/04/08 06:24:32;;;;;;;19.38;11.30;;;4.40;67.90;;;;;;5046441;28;20127;-78
2021/04/08 06:26:58;;;;;;;19.10;10.88;;;4.40;67.70;;;;;;5039007;28;20037;-77
2021/04/08 06:29:24;;;;;;;19.17;10.57;;;4.50;67.50;;;;;;5043626;28;20029;-76
2021/04/08 06:31:49;;;;;;;15.70;8.88;;;4.50;67.30;;;;;;5038168;28;20124;-77
2021/04/08 06:34:15;;;;;;;14.95;9.25;;;4.60;67.30;;;;;;5044176;28;20033;-77
2021/04/08 06:36:41;;;;;;;15.90;9.20;;;4.60;66.80;;;;;;5046016;28;20060;-77
2021/04/08 06:39:07;;;;;;;13.68;8.95;;;4.70;66.40;;;;;;5040119;28;20477;-77
2021/04/08 06:41:37;;;;;;;15.45;9.45;;;4.70;66.30;;;;;;5044907;28;20029;-78
2021/04/08 06:44:03;;;;;;;16.67;9.63;;;4.80;66.30;;;;;;5043529;28;20036;-78
2021/04/08 06:46:40;;;;;;;16.45;9.35;;;4.90;65.70;;;;;;5043442;28;20068;-77
2021/04/08 06:49:33;;;;;;;17.83;9.05;;;5.00;65.20;;;;;;5044647;28;20037;-81
2021/04/08 06:52:00;;;;;;;20.73;9.20;;;5.10;65.30;;;;;;5053613;28;20026;-76
2021/04/08 06:54:27;;;;;;;15.82;8.95;;;5.10;64.70;;;;;;5043006;28;20052;-78
2021/04/08 06:56:54;;;;;;;17.85;9.00;;;5.30;64.40;;;;;;5047664;28;20119;-79
2021/04/08 06:59:20;;;;;;;16.90;9.05;;;5.40;64.10;;;;;;5063132;28;20380;-81
2021/04/08 07:01:47;;;;;;;13.95;7.90;;;5.40;63.80;;;;;;5058797;28;20049;-76
2021/04/08 07:04:13;;;;;;;16.77;9.40;;;5.50;62.90;;;;;;5061109;28;20017;-77
2021/04/08 07:06:40;;;;;;;15.70;9.23;;;5.60;62.90;;;;;;5056470;28;20040;-73
2021/04/08 07:09:09;;;;;;;15.02;9.57;;;5.60;62.10;;;;;;5053450;28;20033;-71
2021/04/08 07:11:36;;;;;;;21.70;9.57;;;5.70;61.40;;;;;;5059592;28;20032;-70
2021/04/08 07:14:05;;;;;;;14.88;9.50;;;5.80;60.90;;;;;;5058467;28;20077;-71
2021/04/08 07:16:32;;;;;;;19.65;9.35;;;5.90;60.70;;;;;;5059932;28;20071;-69
2021/04/08 07:19:01;;;;;;;16.80;9.02;;;6.00;60.40;;;;;;5057382;28;20108;-69
2021/04/08 07:21:29;;;;;;;14.50;8.98;;;6.10;60.10;;;;;;5059932;28;20032;-69
2021/04/08 07:24:18;;;;;;;15.20;9.02;;;6.20;59.20;;;;;;5056164;28;20120;-70
2021/04/08 07:27:00;;;;;;;14.00;8.43;;;6.20;59.30;;;;;;5055481;28;20116;-70
2021/04/08 07:29:41;;;;;;;14.32;9.55;;;6.50;58.30;;;;;;5063439;28;20388;-70
2021/04/08 07:32:14;;;;;;;16.67;9.77;;;6.60;57.20;;;;;;5062641;28;20032;-70
2021/04/08 07:34:44;;;;;;;13.93;8.93;;;6.80;57.00;;;;;;5057753;28;20056;-70
2021/04/08 07:37:10;;;;;;;15.23;9.60;;;6.90;56.40;;;;;;5045497;28;20041;-69
2021/04/08 07:39:46;;;;;;;14.73;9.40;;;7.00;55.10;;;;;;5037099;28;20082;-69
2021/04/08 07:42:15;;;;;;;13.90;9.38;;;7.10;54.60;;;;;;5037626;28;20037;-69
2021/04/08 07:44:52;;;;;;;15.23;8.85;;;7.10;53.50;;;;;;5062718;28;20095;-70
2021/04/08 07:47:20;;;;;;;14.27;9.40;;;7.30;54.00;;;;;;5061754;28;20057;-69
2021/04/08 07:49:55;;;;;;;17.10;9.98;;;7.30;53.00;;;;;;5056953;28;20507;-70
2021/04/08 07:52:31;;;;;;;13.75;8.52;;;7.40;53.80;;;;;;5059180;28;20036;-70
2021/04/08 07:55:03;;;;;;;11.57;8.55;;;7.50;52.90;;;;;;5060678;28;20120;-70
2021/04/08 07:57:30;;;;;;;15.18;9.15;;;7.60;52.20;;;;;;5050092;28;20134;-71
2021/04/08 07:59:56;;;;;;;12.55;8.48;;;7.60;51.20;;;;;;5055625;28;20037;-70
2021/04/08 08:02:25;;;;;;;13.55;8.05;;;7.70;50.50;;;;;;5055113;28;20115;-69
2021/04/08 08:05:11;;;;;;;14.75;8.10;;;7.80;48.90;;;;;;5056382;28;20037;-70
2021/04/08 08:07:36;;;;;;;13.85;8.65;;;7.90;47.80;;;;;;5056954;28;20048;-70
2021/04/08 08:10:02;;;;;;;11.75;8.43;;;7.90;46.30;;;;;;5060781;28;20388;-70
2021/04/08 08:12:32;;;;;;;13.45;8.88;;;8.10;47.10;;;;;;5063627;28;20078;-69
2021/04/08 08:15:25;;;;;;;16.45;8.85;;;8.20;46.50;;;;;;5066098;28;20048;-69
2021/04/08 08:17:53;;;;;;;16.95;8.88;;;8.40;46.70;;;;;;5058794;28;20043;-70
2021/04/08 08:20:19;;;;;;;15.23;9.52;;;8.40;46.00;;;;;;5062942;28;20025;-69
2021/04/08 08:22:46;;;;;;;13.60;8.80;;;8.60;45.20;;;;;;5063333;28;20384;-69
2021/04/08 08:25:14;;;;;;;17.10;10.15;;;8.70;43.90;;;;;;5074750;28;20464;-69
2021/04/08 08:27:48;;;;;;;13.27;10.07;;;8.60;43.20;;;;;;5055897;28;20048;-68
2021/04/08 08:30:18;;;;;;;;;;;8.50;42.70;;;;;;5063475;28;20043;-69
2021/04/08 08:33:11;;;;;;;16.23;9.93;;;8.30;42.10;;;;;;5055906;28;19919;-70
2021/04/08 08:35:37;;;;;;;10.85;8.35;;;8.40;42.30;;;;;;5051119;28;20040;-69
2021/04/08 08:38:15;;;;;;;14.30;9.27;;;8.60;40.90;;;;;;5053932;28;20045;-71
2021/04/08 08:40:42;;;;;;;11.38;8.65;;;8.60;39.70;;;;;;5052331;28;20051;-70
2021/04/08 08:43:09;;;;;;;11.68;9.43;;;8.70;39.90;;;;;;5058002;28;20039;-70
2021/04/08 08:45:36;;;;;;;14.07;9.40;;;8.90;40.20;;;;;;5045754;28;20036;-70
2021/04/08 08:48:06;;;;;;;11.35;8.77;;;9.00;40.10;;;;;;5037318;28;20045;-72
2021/04/08 08:50:32;;;;;;;15.52;9.70;;;9.10;39.70;;;;;;5037495;28;20025;-69
2021/04/08 08:53:00;;;;;;;14.13;8.65;;;9.10;40.20;;;;;;5054946;28;20033;-69
2021/04/08 08:55:26;;;;;;;13.05;8.02;;;9.10;39.00;;;;;;5055689;28;20120;-69
2021/04/08 08:57:54;;;;;;;11.38;8.50;;;9.20;39.40;;;;;;5059643;28;20040;-69
2021/04/08 09:00:22;;;;;;;11.35;8.52;;;9.30;38.40;;;;;;5056439;28;20037;-68
2021/04/08 09:02:48;;;;;;;13.07;8.73;;;9.30;38.50;;;;;;5056916;28;20395;-69
2021/04/08 09:05:17;;;;;;;12.75;9.23;;;9.30;39.10;;;;;;5059229;28;20357;-69
2021/04/08 09:07:48;;;;;;;14.68;9.50;;;9.30;38.10;;;;;;5063448;28;20480;-69
2021/04/08 09:10:20;;;;;;;12.02;9.40;;;9.40;38.50;;;;;;5062525;28;20032;-70
2021/04/08 09:12:45;;;;;;;14.18;9.07;;;9.20;38.50;;;;;;5059581;28;20047;-69
2021/04/08 09:15:11;;;;;;;11.63;9.05;;;9.10;39.00;;;;;;5063342;28;20028;-72
2021/04/08 09:17:48;;;;;;;12.02;8.48;;;9.40;39.50;;;;;;5061612;28;20051;-69
2021/04/08 09:20:18;;;;;;;13.00;9.25;;;9.60;39.30;;;;;;5061739;28;20040;-69
2021/04/08 09:23:13;;;;;;;11.13;9.10;;;9.80;37.30;;;;;;5056167;28;20033;-70
2021/04/08 09:25:53;;;;;;;11.50;8.37;;;9.60;38.00;;;;;;5052837;28;20132;-69
2021/04/08 09:28:19;;;;;;;9.85;8.13;;;9.60;37.90;;;;;;5061227;28;20318;-69
2021/04/08 09:33:44;;;;;;;9.10;7.75;;;9.90;37.90;;;;;;5049180;28;20045;-69
2021/04/08 09:36:22;;;;;;;10.82;8.52;;;10.30;37.30;;;;;;5044241;28;20059;-69
2021/04/08 09:38:49;;;;;;;12.70;8.70;;;10.30;36.90;;;;;;5057319;28;20044;-69
2021/04/08 09:41:15;;;;;;;14.02;8.65;;;10.40;36.60;;;;;;5032411;28;20069;-71
2021/04/08 09:43:40;;;;;;;12.77;8.52;;;10.20;36.30;;;;;;5041788;28;20552;-69
2021/04/08 09:46:09;;;;;;;13.60;9.18;;;10.20;37.30;;;;;;5040098;28;20036;-69
2021/04/08 09:48:47;;;;;;;13.40;10.73;;;9.90;37.50;;;;;;5048917;28;20222;-69
2021/04/08 09:51:45;;;;;;;12.02;9.02;;;9.80;38.10;;;;;;5065616;28;20032;-71
2021/04/08 09:54:16;;;;;;;12.65;9.10;;;9.90;37.20;;;;;;5011735;28;20285;-69
2021/04/08 09:57:08;;;;;;;13.43;8.43;;;10.00;37.40;;;;;;5039878;28;20094;-69
2021/04/08 09:59:54;;;;;;;12.25;8.02;;;10.40;37.50;;;;;;5045866;28;20155;-71
2021/04/08 10:02:20;;;;;;;9.93;8.73;;;10.30;37.40;;;;;;5053420;28;20427;-70
2021/04/08 10:05:10;;;;;;;13.10;8.65;;;10.40;36.70;;;;;;5056775;28;20101;-68
2021/04/08 10:07:57;;;;;;;11.48;8.60;;;10.30;36.50;;;;;;5048125;28;20480;-70
2021/04/08 10:10:43;;;;;;;11.30;8.15;;;10.60;37.80;;;;;;5052915;28;20040;-68
2021/04/08 10:13:21;;;;;;;12.77;8.32;;;10.70;36.20;;;;;;5059118;28;20375;-69
2021/04/08 10:15:47;;;;;;;13.80;8.27;;;10.90;36.00;;;;;;5050774;28;20192;-68
2021/04/08 10:18:18;;;;;;;13.95;9.52;;;11.10;37.00;;;;;;5050598;28;20536;-69
2021/04/08 10:20:46;;;;;;;10.65;8.55;;;11.00;37.30;;;;;;5055996;28;20081;-70
2021/04/08 10:23:12;;;;;;;11.48;7.40;;;10.90;36.60;;;;;;5062739;28;20327;-69
2021/04/08 10:25:39;;;;;;;9.88;7.80;;;10.40;37.60;;;;;;5051750;28;20400;-71
2021/04/08 10:28:06;;;;;;;12.15;8.38;;;10.30;37.80;;;;;;5043972;28;20048;-69
2021/04/08 10:30:40;;;;;;;12.02;8.05;;;10.50;37.50;;;;;;5049735;28;20089;-69
2021/04/08 10:33:17;;;;;;;12.13;8.55;;;10.70;37.20;;;;;;5047077;28;20053;-68
2021/04/08 10:35:44;;;;;;;11.98;8.52;;;10.70;37.30;;;;;;5062618;28;20047;-69
2021/04/08 10:38:10;;;;;;;11.98;8.93;;;10.90;36.70;;;;;;5046632;28;20366;-71
2021/04/08 10:40:36;;;;;;;13.32;9.13;;;10.90;36.10;;;;;;5032915;28;20102;-68
2021/04/08 10:43:10;;;;;;;12.73;9.00;;;10.80;36.70;;;;;;5048834;28;20419;-70
2021/04/08 10:45:36;;;;;;;12.13;9.00;;;10.70;37.60;;;;;;5038760;28;20046;-71
2021/04/08 10:48:05;;;;;;;11.90;9.07;;;10.50;37.50;;;;;;5037449;28;20041;-70
2021/04/08 10:50:31;;;;;;;11.80;8.45;;;10.70;37.80;;;;;;5030800;28;20025;-69
2021/04/08 10:52:59;;;;;;;15.23;9.52;;;10.60;37.90;;;;;;5054105;28;20047;-71
2021/04/08 10:55:26;;;;;;;13.95;9.93;;;10.60;37.60;;;;;;5040639;28;20037;-69
2021/04/08 10:57:52;;;;;;;13.48;9.65;;;10.80;37.40;;;;;;5048883;28;20033;-68
2021/04/08 11:00:18;;;;;;;14.75;10.30;;;11.50;37.20;;;;;;5056673;28;20016;-73
2021/04/08 11:02:45;;;;;;;12.32;9.75;;;12.00;35.40;;;;;;5067328;28;20040;-69
2021/04/08 11:05:17;;;;;;;13.70;10.55;;;11.60;35.90;;;;;;5051251;28;20037;-68
2021/04/08 11:07:46;;;;;;;11.63;9.35;;;11.00;35.40;;;;;;5050551;28;20041;-71
2021/04/08 11:10:14;;;;;;;12.18;9.02;;;11.60;37.20;;;;;;5055016;28;20600;-69
2021/04/08 11:12:40;;;;;;;13.45;9.05;;;12.00;36.00;;;;;;5054438;28;20515;-70
2021/04/08 11:15:08;;;;;;;12.60;8.90;;;11.90;35.50;;;;;;5056666;28;20127;-73
2021/04/08 11:17:35;;;;;;;12.68;8.77;;;12.20;36.50;;;;;;5062865;28;20033;-72
2021/04/08 11:20:03;;;;;;;14.00;9.32;;;12.70;35.60;;;;;;5054593;28;20043;-70
2021/04/08 11:22:32;;;;;;;13.25;9.00;;;12.60;34.70;;;;;;5056106;28;20021;-71
2021/04/08 11:24:58;;;;;;;11.38;9.27;;;12.60;34.70;;;;;;5057280;28;20048;-70
2021/04/08 11:27:36;;;;;;;10.68;7.75;;;12.90;34.60;;;;;;5053059;28;20396;-69
2021/04/08 11:30:07;;;;;;;13.98;9.15;;;13.00;34.30;;;;;;5053409;28;20068;-70
2021/04/08 11:32:51;;;;;;;9.85;8.13;;;13.10;34.50;;;;;;5052881;28;20033;-69
2021/04/08 11:35:35;;;;;;;12.57;9.02;;;13.10;34.60;;;;;;5048858;28;20033;-73
2021/04/08 11:38:09;;;;;;;13.30;8.95;;;12.90;33.60;;;;;;5048919;28;20036;-71
2021/04/08 11:40:37;;;;;;;13.20;9.18;;;12.50;34.60;;;;;;5047360;28;20040;-69
2021/04/08 11:43:19;;;;;;;12.43;8.90;;;12.40;34.20;;;;;;5055267;28;20029;-71
2021/04/08 11:45:45;;;;;;;12.75;8.80;;;12.60;35.40;;;;;;5053315;28;20032;-69
2021/04/08 11:48:11;;;;;;;14.32;9.85;;;12.80;34.10;;;;;;5061233;28;20044;-71
2021/04/08 11:50:41;;;;;;;13.80;9.02;;;12.90;34.50;;;;;;5050323;28;20424;-68
2021/04/08 11:53:14;;;;;;;11.82;9.65;;;12.70;34.30;;;;;;5057468;28;20037;-69
2021/04/08 11:55:48;;;;;;;12.02;10.38;;;11.90;34.50;;;;;;5054986;28;20033;-68
2021/04/08 11:58:24;;;;;;;13.73;9.80;;;11.60;37.50;;;;;;5040358;28;20035;-70
2021/04/08 12:00:51;;;;;;;12.93;9.55;;;12.00;35.80;;;;;;5051335;28;20041;-71
2021/04/08 12:03:25;;;;;;;12.80;9.98;;;11.40;36.60;;;;;;5053036;28;20600;-71
2021/04/08 12:05:52;;;;;;;12.25;9.27;;;11.60;37.50;;;;;;5054234;28;20036;-70
2021/04/08 12:08:43;;;;;;;11.75;9.63;;;11.90;36.30;;;;;;5052314;28;20079;-70
2021/04/08 12:11:11;;;;;;;12.13;9.55;;;12.30;36.40;;;;;;5055540;28;20032;-69
2021/04/08 12:13:37;;;;;;;11.95;9.10;;;12.60;34.60;;;;;;5060190;28;20134;-70
2021/04/08 12:16:05;;;;;;;13.15;9.18;;;12.60;34.10;;;;;;5052388;28;20055;-70
2021/04/08 12:18:31;;;;;;;12.75;7.95;;;12.70;34.20;;;;;;5045972;28;20538;-68
2021/04/08 12:21:10;;;;;;;13.13;8.70;;;12.90;34.50;;;;;;5051698;28;20033;-69
2021/04/08 12:23:36;;;;;;;12.05;8.73;;;12.80;34.20;;;;;;5053687;28;20032;-70
2021/04/08 12:26:02;;;;;;;11.73;9.07;;;12.60;34.50;;;;;;5047387;28;20054;-70
2021/04/08 12:28:27;;;;;;;13.25;9.48;;;12.90;34.00;;;;;;5058028;28;20116;-68
2021/04/08 12:30:59;;;;;;;10.95;8.50;;;13.00;34.30;;;;;;5058609;28;20452;-71
2021/04/08 12:33:29;;;;;;;12.70;9.13;;;13.10;34.00;;;;;;5052963;28;20253;-69
2021/04/08 12:35:56;;;;;;;12.13;9.13;;;13.00;34.40;;;;;;5046728;28;20075;-68
2021/04/08 12:38:23;;;;;;;11.45;8.98;;;12.80;33.60;;;;;;5061138;28;20464;-68
2021/04/08 12:40:50;;;;;;;15.05;9.48;;;12.80;34.00;;;;;;5067244;28;20037;-69
2021/04/08 12:43:15;;;;;;;12.88;10.00;;;12.90;34.60;;;;;;5048234;28;20033;-68
2021/04/08 12:45:41;;;;;;;12.15;9.70;;;12.80;33.60;;;;;;5040080;28;20048;-71
2021/04/08 12:48:08;;;;;;;11.32;8.80;;;12.90;35.00;;;;;;5044458;28;20044;-69
2021/04/08 12:50:34;;;;;;;13.25;9.75;;;12.90;34.30;;;;;;5052828;28;20033;-69
2021/04/08 12:52:59;;;;;;;15.50;10.65;;;12.80;34.20;;;;;;5057863;28;20137;-69
2021/04/08 12:55:27;;;;;;;13.05;10.73;;;12.80;34.40;;;;;;5056515;28;20109;-68
2021/04/08 12:57:54;;;;;;;15.27;10.10;;;13.00;34.50;;;;;;5047983;28;20503;-68